createdAt,value
2018-04-25T00:02:09.247Z,66.50
2018-04-25T00:04:37.529Z,66.70
2018-04-25T00:07:05.804Z,66.90
2018-04-25T00:09:34.111Z,66.70
2018-04-25T00:12:01.621Z,66.70
2018-04-25T00:14:29.129Z,66.50
2018-04-25T00:16:56.650Z,66.70
2018-04-25T00:19:24.168Z,67.20
2018-04-25T00:21:51.696Z,67.10
2018-04-25T00:24:19.219Z,66.80
2018-04-25T00:26:46.746Z,67.10
2018-04-25T00:29:14.260Z,66.90
2018-04-25T00:31:41.801Z,67.10
2018-04-25T00:34:09.313Z,67.00
2018-04-25T00:36:36.916Z,67.10
2018-04-25T00:39:04.438Z,67.80
2018-04-25T00:41:31.938Z,68.30
2018-04-25T00:43:59.463Z,68.50
2018-04-25T00:46:27.074Z,68.90
2018-04-25T00:48:54.601Z,69.60
2018-04-25T00:51:22.107Z,70.10
2018-04-25T00:53:49.635Z,70.70
2018-04-25T00:56:17.917Z,71.40
2018-04-25T00:58:46.201Z,71.60
2018-04-25T01:01:14.627Z,71.50
2018-04-25T01:03:42.145Z,71.20
2018-04-25T01:06:10.434Z,72.00
2018-04-25T01:08:38.708Z,71.20
2018-04-25T01:11:06.999Z,70.10
2018-04-25T01:13:35.290Z,70.10
2018-04-25T01:16:02.820Z,70.10
2018-04-25T01:18:31.074Z,69.70
2018-04-25T01:20:58.600Z,69.70
2018-04-25T01:23:26.116Z,69.50
2018-04-25T01:26:00.026Z,69.40
2018-04-25T01:28:33.208Z,69.40
2018-04-25T01:31:01.659Z,69.20
2018-04-25T01:33:29.923Z,69.10
2018-04-25T01:35:58.370Z,69.00
2018-04-25T01:38:39.016Z,69.40
2018-04-25T01:41:08.008Z,69.40
2018-04-25T01:43:35.533Z,69.50
2018-04-25T01:46:07.879Z,69.40
2018-04-25T01:51:46.407Z,69.80
2018-04-25T01:54:26.411Z,70.20
2018-04-25T01:57:05.968Z,70.10
2018-04-25T01:59:46.029Z,70.80
2018-04-25T02:02:13.820Z,70.50
2018-04-25T02:04:42.103Z,70.40
2018-04-25T02:07:10.366Z,70.40
2018-04-25T02:09:37.909Z,70.30
2018-04-25T02:12:05.421Z,70.80
2018-04-25T02:14:32.944Z,70.20
2018-04-25T02:17:00.460Z,70.20
2018-04-25T02:19:28.214Z,70.30
2018-04-25T02:21:56.484Z,70.30
2018-04-25T02:24:24.768Z,70.20
2018-04-25T02:26:53.057Z,70.50
2018-04-25T02:29:20.579Z,70.40
2018-04-25T02:31:48.110Z,70.30
2018-04-25T02:34:15.661Z,70.30
2018-04-25T02:36:43.179Z,70.20
2018-04-25T02:39:11.449Z,70.90
2018-04-25T02:41:38.983Z,70.30
2018-04-25T02:44:06.485Z,70.30
2018-04-25T02:46:34.017Z,70.20
2018-04-25T02:49:01.535Z,70.30
2018-04-25T02:51:29.808Z,70.40
2018-04-25T02:53:57.326Z,70.40
2018-04-25T02:56:24.848Z,70.50
2018-04-25T02:58:53.176Z,70.50
2018-04-25T03:01:20.675Z,70.50
2018-04-25T03:03:48.206Z,70.50
2018-04-25T03:06:15.707Z,71.10
2018-04-25T03:08:43.217Z,70.70
2018-04-25T03:11:10.751Z,70.70
2018-04-25T03:13:39.025Z,71.10
2018-04-25T03:16:07.329Z,70.60
2018-04-25T03:18:34.839Z,70.50
2018-04-25T03:21:02.357Z,70.50
2018-04-25T03:23:29.878Z,70.50
2018-04-25T03:25:57.465Z,70.50
2018-04-25T03:28:24.937Z,70.80
2018-04-25T03:30:52.454Z,70.40
2018-04-25T03:33:19.968Z,70.50
2018-04-25T03:35:47.474Z,71.10
2018-04-25T03:38:14.990Z,71.30
2018-04-25T03:40:43.297Z,71.60
2018-04-25T03:43:10.814Z,71.70
2018-04-25T03:45:39.134Z,72.10
2018-04-25T03:48:06.656Z,72.00
2018-04-25T03:50:34.969Z,72.70
2018-04-25T03:53:02.484Z,72.70
2018-04-25T03:55:30.002Z,72.10
2018-04-25T03:57:57.521Z,72.10
2018-04-25T04:00:25.036Z,73.00
2018-04-25T04:02:52.561Z,73.90
2018-04-25T04:05:20.864Z,72.80
2018-04-25T04:07:48.373Z,72.80
2018-04-25T04:10:15.879Z,72.10
2018-04-25T04:12:44.178Z,71.70
2018-04-25T04:15:11.702Z,71.70
2018-04-25T04:17:39.229Z,71.50
2018-04-25T04:20:06.762Z,71.60
2018-04-25T04:22:34.339Z,71.60
2018-04-25T04:25:01.867Z,71.60
2018-04-25T04:27:29.376Z,71.80
2018-04-25T04:29:56.916Z,71.80
2018-04-25T04:32:24.444Z,71.80
2018-04-25T04:34:51.974Z,71.80
2018-04-25T04:37:19.486Z,71.90
2018-04-25T04:39:47.763Z,71.90
2018-04-25T04:42:15.288Z,72.20
2018-04-25T04:44:42.798Z,72.70
2018-04-25T04:47:11.077Z,72.50
2018-04-25T04:49:39.365Z,73.00
2018-04-25T04:52:07.668Z,72.90
2018-04-25T04:54:35.176Z,72.90
2018-04-25T04:57:02.714Z,73.00
2018-04-25T04:59:30.221Z,73.10
2018-04-25T05:01:57.824Z,73.10
2018-04-25T05:04:25.367Z,73.40
2018-04-25T05:06:53.651Z,72.80
2018-04-25T05:09:21.959Z,72.60
2018-04-25T05:11:49.495Z,72.60
2018-04-25T05:14:17.783Z,72.90
2018-04-25T05:16:45.312Z,72.90
2018-04-25T05:19:12.852Z,72.80
2018-04-25T05:21:40.390Z,73.40
2018-04-25T05:24:07.955Z,73.50
2018-04-25T05:26:35.471Z,73.20
2018-04-25T05:29:02.979Z,73.10
2018-04-25T05:31:30.507Z,73.00
2018-04-25T05:33:58.776Z,73.10
2018-04-25T05:36:26.295Z,73.00
2018-04-25T05:38:53.808Z,72.80
2018-04-25T05:41:21.341Z,71.90
2018-04-25T05:43:48.868Z,71.20
2018-04-25T05:46:16.388Z,70.60
2018-04-25T05:48:43.938Z,70.60
2018-04-25T05:51:11.465Z,69.80
2018-04-25T05:53:38.992Z,68.90
2018-04-25T05:56:06.511Z,68.60
2018-04-25T05:58:34.049Z,68.50
2018-04-25T06:01:02.321Z,68.00
2018-04-25T06:03:30.597Z,68.10
2018-04-25T06:05:58.877Z,68.10
2018-04-25T06:08:27.147Z,68.10
2018-04-25T06:10:54.847Z,68.10
2018-04-25T06:13:22.368Z,68.40
2018-04-25T06:15:49.864Z,67.80
2018-04-25T06:18:18.146Z,68.10
2018-04-25T06:20:46.431Z,67.40
2018-04-25T06:23:14.717Z,68.10
2018-04-25T06:25:42.235Z,68.10
2018-04-25T06:28:09.812Z,66.70
2018-04-25T06:30:37.305Z,66.80
2018-04-25T06:33:04.837Z,65.60
2018-04-25T06:35:32.369Z,67.50
2018-04-25T06:37:59.895Z,67.00
2018-04-25T06:40:27.428Z,65.60
2018-04-25T06:42:54.945Z,65.80
2018-04-25T06:45:22.461Z,66.20
2018-04-25T06:47:50.746Z,64.60
2018-04-25T06:50:19.026Z,65.40
2018-04-25T06:52:47.306Z,65.50
2018-04-25T06:55:15.598Z,64.40
2018-04-25T06:57:43.894Z,63.60
2018-04-25T07:00:11.400Z,63.60
2018-04-25T07:02:38.930Z,63.30
2018-04-25T07:05:06.444Z,63.40
2018-04-25T07:07:33.941Z,61.00
2018-04-25T07:10:02.247Z,61.70
2018-04-25T07:12:29.749Z,61.70
2018-04-25T07:14:57.277Z,61.80
2018-04-25T07:17:24.800Z,61.20
2018-04-25T07:19:53.081Z,59.30
2018-04-25T07:22:21.376Z,59.30
2018-04-25T07:24:48.882Z,59.30
2018-04-25T07:27:16.401Z,59.60
2018-04-25T07:29:44.697Z,58.20
2018-04-25T07:32:12.231Z,58.20
2018-04-25T07:34:40.513Z,58.10
2018-04-25T07:37:08.823Z,57.70
2018-04-25T07:39:36.337Z,57.60
2018-04-25T07:42:03.861Z,58.30
2018-04-25T07:44:31.411Z,56.10
2018-04-25T07:46:58.922Z,56.90
2018-04-25T07:49:26.444Z,56.70
2018-04-25T07:51:53.965Z,56.80
2018-04-25T07:54:21.506Z,57.00
2018-04-25T07:56:49.031Z,57.40
2018-04-25T07:59:16.543Z,56.90
2018-04-25T08:01:44.164Z,56.20
2018-04-25T08:04:11.674Z,58.30
2018-04-25T08:06:39.210Z,56.40
2018-04-25T08:09:06.740Z,56.10
2018-04-25T08:11:34.286Z,56.40
2018-04-25T08:14:14.594Z,55.50
2018-04-25T08:16:54.153Z,55.50
2018-04-25T08:19:33.471Z,56.70
2018-04-25T08:22:01.002Z,56.30
2018-04-25T08:24:29.288Z,55.90
2018-04-25T08:26:56.819Z,55.80
2018-04-25T08:29:25.120Z,56.50
2018-04-25T08:31:53.409Z,56.10
2018-04-25T08:34:20.993Z,56.10
2018-04-25T08:36:48.468Z,56.30
2018-04-25T08:39:16.083Z,55.90
2018-04-25T08:41:43.533Z,55.10
2018-04-25T08:44:11.051Z,56.30
2018-04-25T08:46:38.583Z,56.40
2018-04-25T08:49:06.876Z,55.00
2018-04-25T08:51:34.411Z,54.90
2018-04-25T08:54:02.697Z,55.10
2018-04-25T08:56:30.973Z,54.90
2018-04-25T08:58:59.255Z,55.10
2018-04-25T09:01:27.535Z,54.90
2018-04-25T09:03:55.830Z,53.60
2018-04-25T09:06:24.112Z,53.10
2018-04-25T09:08:52.408Z,53.40
2018-04-25T09:11:19.919Z,53.40
2018-04-25T09:13:47.436Z,54.00
2018-04-25T09:16:14.962Z,54.80
2018-04-25T09:18:42.481Z,54.40
2018-04-25T09:21:10.013Z,52.30
2018-04-25T09:23:38.288Z,53.60
2018-04-25T09:26:06.589Z,52.80
2018-04-25T09:28:34.096Z,52.20
2018-04-25T09:31:01.616Z,53.50
2018-04-25T09:33:29.172Z,48.20
2018-04-25T09:35:56.690Z,49.00
2018-04-25T09:38:24.214Z,49.50
2018-04-25T09:40:51.728Z,50.00
2018-04-25T09:43:19.272Z,49.00
2018-04-25T09:45:46.774Z,49.70
2018-04-25T09:48:15.053Z,48.70
2018-04-25T09:50:43.343Z,50.10
2018-04-25T09:53:11.627Z,47.80
2018-04-25T09:55:39.979Z,46.80
2018-04-25T09:58:07.463Z,46.80
2018-04-25T10:00:40.547Z,47.60
2018-04-25T10:03:14.443Z,46.30
2018-04-25T10:05:41.976Z,46.30
2018-04-25T10:08:09.485Z,47.60
2018-04-25T10:10:37.760Z,47.90
2018-04-25T10:13:05.304Z,47.80
2018-04-25T10:15:32.804Z,45.40
2018-04-25T10:18:01.088Z,46.60
2018-04-25T10:20:29.359Z,44.30
2018-04-25T10:22:57.672Z,46.00
2018-04-25T10:25:25.187Z,45.90
2018-04-25T10:27:52.709Z,43.70
2018-04-25T10:30:20.232Z,43.30
2018-04-25T10:32:48.499Z,44.40
2018-04-25T10:35:16.018Z,44.40
2018-04-25T10:37:43.524Z,43.20
2018-04-25T10:40:11.029Z,42.80
2018-04-25T10:42:38.597Z,45.50
2018-04-25T10:45:06.101Z,41.40
2018-04-25T10:47:33.632Z,42.50
2018-04-25T10:50:01.908Z,43.70
2018-04-25T10:52:29.443Z,43.60
2018-04-25T10:54:57.725Z,42.80
2018-04-25T10:57:26.027Z,42.10
2018-04-25T10:59:53.535Z,41.80
2018-04-25T11:02:21.060Z,41.40
2018-04-25T11:04:48.601Z,40.40
2018-04-25T11:07:16.878Z,43.30
2018-04-25T11:09:45.158Z,38.10
2018-04-25T11:12:13.428Z,38.80
2018-04-25T11:14:41.715Z,41.60
2018-04-25T11:17:09.995Z,39.50
2018-04-25T11:19:38.293Z,39.50
2018-04-25T11:22:05.816Z,39.50
2018-04-25T11:24:33.321Z,37.40
2018-04-25T11:27:00.847Z,39.50
2018-04-25T11:29:28.356Z,40.30
2018-04-25T11:31:55.899Z,40.70
2018-04-25T11:34:24.164Z,40.00
2018-04-25T11:36:52.455Z,40.50
2018-04-25T11:39:20.732Z,39.80
2018-04-25T11:41:49.023Z,40.60
2018-04-25T11:44:17.321Z,41.50
2018-04-25T11:46:44.836Z,41.50
2018-04-25T11:49:12.354Z,39.00
2018-04-25T11:51:39.858Z,40.40
2018-04-25T11:54:07.412Z,37.90
2018-04-25T11:56:34.928Z,40.20
2018-04-25T11:59:02.454Z,40.40
2018-04-25T12:01:29.965Z,38.70
2018-04-25T12:03:57.490Z,40.00
2018-04-25T12:06:25.020Z,39.00
2018-04-25T12:08:52.519Z,39.10
2018-04-25T12:11:20.814Z,38.90
2018-04-25T12:13:49.094Z,39.60
2018-04-25T12:16:17.396Z,39.70
2018-04-25T12:18:44.925Z,39.60
2018-04-25T12:21:12.453Z,37.60
2018-04-25T12:23:39.995Z,36.00
2018-04-25T12:26:07.514Z,37.30
2018-04-25T12:28:35.041Z,36.40
2018-04-25T12:31:02.560Z,37.90
2018-04-25T12:33:30.880Z,36.30
2018-04-25T12:35:59.158Z,36.00
2018-04-25T12:38:26.676Z,35.90
2018-04-25T12:40:54.980Z,37.20
2018-04-25T12:43:22.494Z,36.80
2018-04-25T12:45:50.026Z,37.60
2018-04-25T12:48:17.537Z,38.10
2018-04-25T12:50:45.070Z,36.90
2018-04-25T12:53:12.588Z,37.20
2018-04-25T12:55:40.893Z,36.90
2018-04-25T12:58:08.415Z,36.80
2018-04-25T13:00:35.947Z,37.70
2018-04-25T13:03:03.480Z,38.90
2018-04-25T13:05:31.008Z,37.50
2018-04-25T13:07:59.405Z,37.30
2018-04-25T13:10:27.688Z,38.20
2018-04-25T13:12:55.990Z,37.30
2018-04-25T13:15:23.520Z,37.20
2018-04-25T13:17:51.052Z,37.80
2018-04-25T13:20:18.601Z,37.50
2018-04-25T13:22:46.125Z,36.70
2018-04-25T13:25:14.428Z,36.30
2018-04-25T13:27:41.959Z,36.20
2018-04-25T13:30:10.274Z,37.80
2018-04-25T13:32:39.350Z,37.30
2018-04-25T13:35:06.898Z,37.90
2018-04-25T13:37:34.423Z,37.60
2018-04-25T13:40:01.932Z,38.70
2018-04-25T13:42:29.465Z,39.00
2018-04-25T13:44:56.999Z,37.60
2018-04-25T13:47:24.528Z,38.50
2018-04-25T13:49:52.798Z,37.10
2018-04-25T13:52:20.334Z,37.00
2018-04-25T13:54:47.857Z,39.00
2018-04-25T13:57:15.371Z,39.80
2018-04-25T13:59:42.902Z,41.20
2018-04-25T14:02:10.439Z,41.00
2018-04-25T14:04:39.456Z,39.80
2018-04-25T14:07:06.966Z,39.80
2018-04-25T14:09:34.494Z,38.80
2018-04-25T14:12:02.006Z,39.10
2018-04-25T14:14:29.536Z,39.70
2018-04-25T14:16:57.065Z,40.00
2018-04-25T14:19:24.605Z,40.50
2018-04-25T14:21:52.920Z,39.40
2018-04-25T14:24:20.436Z,39.40
2018-04-25T14:26:48.725Z,37.60
2018-04-25T14:29:16.257Z,37.60
2018-04-25T14:31:43.785Z,37.90
2018-04-25T14:34:11.318Z,38.00
2018-04-25T14:36:38.843Z,37.30
2018-04-25T14:39:06.417Z,38.40
2018-04-25T14:41:33.947Z,36.50
2018-04-25T14:44:01.489Z,36.20
2018-04-25T14:46:29.799Z,36.10
2018-04-25T14:48:57.305Z,36.10
2018-04-25T14:51:24.831Z,35.20
2018-04-25T14:53:52.353Z,35.40
2018-04-25T14:56:20.667Z,35.70
2018-04-25T14:58:48.176Z,35.80
2018-04-25T15:01:15.717Z,35.60
2018-04-25T15:03:43.235Z,35.10
2018-04-25T15:06:11.512Z,35.80
2018-04-25T15:08:39.823Z,36.60
2018-04-25T15:11:07.341Z,36.50
2018-04-25T15:13:34.903Z,36.40
2018-04-25T15:16:02.439Z,37.70
2018-04-25T15:18:29.944Z,37.20
2018-04-25T15:20:58.238Z,37.80
2018-04-25T15:23:26.533Z,39.00
2018-04-25T15:25:54.078Z,39.00
2018-04-25T15:28:22.358Z,37.70
2018-04-25T15:30:50.669Z,37.80
2018-04-25T15:33:18.183Z,37.80
2018-04-25T15:35:45.727Z,38.20
2018-04-25T15:38:13.257Z,38.00
2018-04-25T15:40:40.763Z,37.80
2018-04-25T15:43:08.311Z,39.30
2018-04-25T15:45:35.828Z,37.90
2018-04-25T15:48:04.130Z,37.90
2018-04-25T15:50:31.656Z,37.90
2018-04-25T15:52:59.191Z,38.80
2018-04-25T15:55:26.707Z,38.80
2018-04-25T15:57:54.281Z,39.70
2018-04-25T16:00:21.803Z,39.20
2018-04-25T16:02:49.325Z,39.60
2018-04-25T16:05:16.858Z,39.90
2018-04-25T16:07:45.139Z,39.30
2018-04-25T16:10:12.687Z,39.30
2018-04-25T16:12:41.003Z,39.60
2018-04-25T16:15:08.596Z,39.50
2018-04-25T16:17:36.128Z,40.20
2018-04-25T16:20:03.670Z,40.30
2018-04-25T16:22:32.123Z,39.50
2018-04-25T16:24:59.653Z,39.40
2018-04-25T16:27:27.229Z,39.70
2018-04-25T16:29:54.801Z,39.80
2018-04-25T16:32:22.359Z,40.00
2018-04-25T16:34:49.865Z,40.10
2018-04-25T16:37:18.181Z,41.30
2018-04-25T16:39:45.705Z,40.70
2018-04-25T16:42:13.268Z,40.70
2018-04-25T16:44:41.608Z,40.90
2018-04-25T16:47:09.184Z,40.90
2018-04-25T16:49:36.822Z,40.90
2018-04-25T16:52:04.360Z,40.40
2018-04-25T16:54:32.679Z,39.00
2018-04-25T16:57:00.207Z,39.00
2018-04-25T16:59:28.490Z,40.10
2018-04-25T17:01:56.789Z,39.90
2018-04-25T17:04:24.319Z,39.90
2018-04-25T17:06:51.861Z,39.60
2018-04-25T17:09:19.365Z,40.20
2018-04-25T17:11:46.937Z,40.40
2018-04-25T17:14:14.468Z,41.10
2018-04-25T17:16:42.013Z,41.30
2018-04-25T17:19:09.595Z,42.00
2018-04-25T17:21:37.123Z,42.30
2018-04-25T17:24:04.671Z,42.60
2018-04-25T17:26:32.207Z,42.60
2018-04-25T17:29:00.515Z,42.40
2018-04-25T17:31:28.065Z,42.40
2018-04-25T17:33:55.608Z,43.20
2018-04-25T17:36:23.897Z,43.30
2018-04-25T17:38:51.452Z,43.20
2018-04-25T17:41:18.998Z,43.40
2018-04-25T17:43:46.608Z,43.70
2018-04-25T17:46:14.116Z,43.50
2018-04-25T17:48:41.669Z,43.60
2018-04-25T17:51:09.964Z,43.70
2018-04-25T17:53:37.504Z,44.20
2018-04-25T17:56:05.031Z,44.00
2018-04-25T17:58:33.326Z,45.20
2018-04-25T18:01:01.623Z,46.00
2018-04-25T18:03:29.243Z,46.00
2018-04-25T18:05:56.777Z,45.50
2018-04-25T18:08:24.312Z,46.10
2018-04-25T18:10:51.848Z,45.30
2018-04-25T18:13:20.158Z,46.30
2018-04-25T18:15:47.758Z,46.30
2018-04-25T18:18:15.301Z,46.20
2018-04-25T18:20:42.812Z,46.40
2018-04-25T18:23:10.345Z,46.10
2018-04-25T18:25:37.898Z,46.90
2018-04-25T18:28:05.418Z,47.20
2018-04-25T18:30:33.740Z,48.00
2018-04-25T18:33:01.307Z,47.90
2018-04-25T18:35:28.930Z,47.50
2018-04-25T18:37:57.225Z,48.00
2018-04-25T18:40:25.581Z,49.00
2018-04-25T18:42:53.134Z,49.00
2018-04-25T18:45:20.707Z,47.90
2018-04-25T18:47:48.294Z,48.00
2018-04-25T18:50:16.664Z,48.10
2018-04-25T18:52:45.076Z,48.80
2018-04-25T18:55:13.237Z,48.60
2018-04-25T18:57:42.139Z,49.80
2018-04-25T19:00:09.703Z,49.80
2018-04-25T19:02:38.126Z,48.70
2018-04-25T19:05:06.528Z,50.40
2018-04-25T19:07:34.279Z,50.50
2018-04-25T19:10:02.136Z,50.30
2018-04-25T19:12:29.909Z,50.30
2018-04-25T19:14:57.664Z,48.70
2018-04-25T19:17:25.259Z,47.60
2018-04-25T19:19:54.142Z,47.00
2018-04-25T19:22:21.740Z,47.20
2018-04-25T19:24:50.117Z,47.20
2018-04-25T19:27:17.722Z,47.40
2018-04-25T19:29:46.050Z,48.00
2018-04-25T19:32:13.679Z,47.70
2018-04-25T19:34:42.332Z,48.00
2018-04-25T19:37:10.765Z,48.50
2018-04-25T19:39:38.449Z,48.40
2018-04-25T19:42:06.426Z,49.10
2018-04-25T19:44:34.077Z,49.20
2018-04-25T19:47:01.646Z,48.90
2018-04-25T19:49:29.246Z,49.30
2018-04-25T19:51:56.971Z,50.20
2018-04-25T19:54:24.550Z,49.50
2018-04-25T19:56:52.865Z,50.10
2018-04-25T19:59:21.191Z,50.90
2018-04-25T20:01:48.861Z,50.90
2018-04-25T20:04:16.536Z,50.80
2018-04-25T20:06:44.117Z,50.50
2018-04-25T20:09:11.761Z,50.90
2018-04-25T20:11:39.359Z,50.80
2018-04-25T20:14:06.930Z,50.40
2018-04-25T20:16:34.485Z,50.30
2018-04-25T20:19:02.044Z,50.80
2018-04-25T20:21:29.599Z,51.00
2018-04-25T20:23:57.172Z,51.20
2018-04-25T20:26:24.728Z,52.00
2018-04-25T20:28:52.409Z,52.60
2018-04-25T20:31:19.964Z,52.70
2018-04-25T20:33:47.531Z,52.60
2018-04-25T20:36:15.184Z,52.50
2018-04-25T20:38:42.794Z,52.60
2018-04-25T20:41:10.338Z,52.60
2018-04-25T20:43:37.882Z,52.70
2018-04-25T20:46:05.411Z,53.50
2018-04-25T20:48:33.700Z,57.00
2018-04-25T20:51:01.283Z,57.00
2018-04-25T20:53:28.809Z,59.30
2018-04-25T20:55:56.321Z,62.30
2018-04-25T20:58:23.849Z,61.50
2018-04-25T21:00:52.162Z,62.30
2018-04-25T21:03:19.704Z,62.30
2018-04-25T21:05:47.233Z,64.20
2018-04-25T21:08:14.760Z,64.90
2018-04-25T21:10:42.308Z,65.50
2018-04-25T21:13:09.833Z,64.20
2018-04-25T21:15:37.375Z,63.40
2018-04-25T21:18:04.895Z,64.50
2018-04-25T21:20:32.416Z,65.10
2018-04-25T21:22:59.939Z,65.10
2018-04-25T21:25:27.465Z,67.60
2018-04-25T21:27:55.764Z,66.90
2018-04-25T21:30:23.272Z,66.80
2018-04-25T21:32:50.806Z,67.30
2018-04-25T21:35:18.319Z,68.20
2018-04-25T21:37:45.840Z,68.90
2018-04-25T21:40:13.384Z,68.90
2018-04-25T21:42:40.959Z,68.70
2018-04-25T21:45:08.485Z,69.20
2018-04-25T21:47:36.000Z,69.90
2018-04-25T21:50:03.543Z,70.00
2018-04-25T21:52:31.073Z,70.50
2018-04-25T21:54:59.362Z,71.60
2018-04-25T21:57:27.666Z,71.90
2018-04-25T21:59:55.188Z,71.90
2018-04-25T22:02:23.507Z,72.60
2018-04-25T22:04:51.083Z,72.40
2018-04-25T22:07:18.588Z,72.50
2018-04-25T22:09:46.120Z,73.00
2018-04-25T22:12:13.644Z,73.10
2018-04-25T22:14:41.940Z,73.00
2018-04-25T22:17:10.224Z,72.20
2018-04-25T22:19:38.501Z,72.40
2018-04-25T22:22:06.779Z,72.70
2018-04-25T22:24:35.055Z,72.90
2018-04-25T22:27:03.354Z,72.90
2018-04-25T22:29:30.861Z,72.90
2018-04-25T22:31:58.391Z,72.80
2018-04-25T22:34:25.911Z,73.00
2018-04-25T22:36:54.205Z,73.80
2018-04-25T22:39:22.518Z,73.20
2018-04-25T22:41:50.025Z,73.10
2018-04-25T22:44:17.560Z,72.80
2018-04-25T22:46:45.084Z,72.50
2018-04-25T22:49:13.363Z,73.90
2018-04-25T22:51:41.651Z,75.30
2018-04-25T22:54:09.948Z,74.80
2018-04-25T22:56:37.461Z,74.80
2018-04-25T22:59:04.977Z,75.00
2018-04-25T23:01:32.501Z,75.80
2018-04-25T23:04:00.004Z,76.50
2018-04-25T23:06:27.540Z,76.20
2018-04-25T23:08:55.815Z,76.50
2018-04-25T23:11:24.123Z,76.30
2018-04-25T23:13:51.653Z,76.00
2018-04-25T23:16:19.172Z,75.70
2018-04-25T23:18:46.700Z,75.50
2018-04-25T23:21:14.979Z,75.40
2018-04-25T23:23:43.279Z,75.50
2018-04-25T23:26:10.803Z,75.50
2018-04-25T23:28:38.336Z,75.60
2018-04-25T23:31:05.870Z,76.20
2018-04-25T23:33:33.437Z,77.40
2018-04-25T23:36:00.951Z,76.50
2018-04-25T23:38:28.475Z,75.70
2018-04-25T23:40:56.012Z,76.20
2018-04-25T23:43:24.293Z,74.30
2018-04-25T23:45:52.575Z,74.00
2018-04-25T23:48:20.106Z,74.00
2018-04-25T23:50:47.608Z,74.60
2018-04-25T23:53:15.140Z,75.20
2018-04-25T23:55:42.750Z,74.40
2018-04-25T23:58:10.297Z,74.30
